Time;durP1;ratioP1;P1;durP2;ratioP2;P2;SDS_P1;SDS_P2;PMS_P1;PMS_P2;Temp;Humidity;BMP_temperature;BMP_pressure;BME280_temperature;BME280_humidity;BME280_pressure;Samples;Min_cycle;Max_cycle;Signal;HPM_P1;HPM_P2
2021/03/23 00:01:41;;;;;;;11.48;5.43;;;7.30;99.90;;;;;;4927068;29;20500;-77
2021/03/23 00:04:06;;;;;;;13.63;6.43;;;7.30;99.90;;;;;;4919187;29;20036;-78
2021/03/23 00:06:32;;;;;;;7.75;4.25;;;7.30;99.90;;;;;;4908002;29;20071;-76
2021/03/23 00:09:02;;;;;;;11.18;4.32;;;7.20;99.90;;;;;;4933965;29;20054;-77
2021/03/23 00:11:38;;;;;;;7.45;5.15;;;7.10;99.90;;;;;;4931886;29;20047;-77
2021/03/23 00:14:06;;;;;;;7.10;4.40;;;7.10;99.90;;;;;;4932715;29;20046;-77
2021/03/23 00:16:38;;;;;;;9.63;4.53;;;7.10;99.90;;;;;;4922660;29;20122;-77
2021/03/23 00:19:07;;;;;;;11.13;4.43;;;6.90;99.90;;;;;;4919086;29;20099;-76
2021/03/23 00:21:33;;;;;;;7.75;4.72;;;7.00;99.90;;;;;;4920833;29;20032;-78
2021/03/23 00:24:02;;;;;;;9.30;4.60;;;;;;;;;;4919808;29;20040;-78
2021/03/23 00:26:28;;;;;;;10.35;4.75;;;7.00;99.90;;;;;;4920664;29;20039;-77
2021/03/23 00:28:56;;;;;;;9.52;3.97;;;7.00;99.90;;;;;;4925907;29;20094;-78
2021/03/23 00:31:30;;;;;;;6.30;3.95;;;7.00;99.90;;;;;;4928535;29;20402;-77
2021/03/23 00:33:57;;;;;;;8.95;4.32;;;6.90;99.90;;;;;;4923783;29;20283;-77
2021/03/23 00:36:30;;;;;;;8.05;4.22;;;7.00;99.90;;;;;;4918702;29;20032;-77
2021/03/23 00:38:56;;;;;;;10.27;5.05;;;7.00;99.90;;;;;;4913778;29;20040;-76
2021/03/23 00:41:26;;;;;;;8.07;4.35;;;6.90;99.90;;;;;;4923400;29;20056;-77
2021/03/23 00:43:52;;;;;;;8.13;4.35;;;;;;;;;;4921009;29;20036;-79
2021/03/23 00:46:18;;;;;;;8.95;4.47;;;6.90;99.90;;;;;;4920326;29;20043;-78
2021/03/23 00:48:44;;;;;;;7.53;4.32;;;6.90;99.90;;;;;;4922214;29;20031;-76
2021/03/23 00:51:09;;;;;;;6.97;4.72;;;6.80;99.90;;;;;;4922751;29;20398;-77
2021/03/23 00:53:35;;;;;;;7.60;4.32;;;6.80;99.90;;;;;;4908890;29;20127;-76
2021/03/23 00:56:01;;;;;;;11.25;4.30;;;6.90;99.90;;;;;;4919948;29;20050;-76
2021/03/23 00:58:28;;;;;;;9.57;4.65;;;6.80;99.90;;;;;;4917701;29;20410;-77
2021/03/23 01:00:53;;;;;;;8.07;3.83;;;6.80;99.90;;;;;;4914896;29;20067;-76
2021/03/23 01:03:19;;;;;;;7.97;4.32;;;6.80;99.90;;;;;;4916457;29;20048;-76
2021/03/23 01:05:47;;;;;;;9.27;4.53;;;;;;;;;;4912515;29;20029;-77
2021/03/23 01:08:16;;;;;;;9.18;4.40;;;6.70;99.90;;;;;;4913641;29;20036;-75
2021/03/23 01:10:42;;;;;;;5.75;4.05;;;6.80;99.90;;;;;;4907051;29;20100;-77
2021/03/23 01:13:08;;;;;;;9.30;4.80;;;6.80;99.90;;;;;;4921494;29;20447;-77
2021/03/23 01:15:34;;;;;;;9.80;4.78;;;6.70;99.90;;;;;;4924027;29;20024;-78
2021/03/23 01:18:00;;;;;;;9.25;4.43;;;6.50;99.90;;;;;;4929742;29;20043;-78
2021/03/23 01:20:27;;;;;;;7.20;4.57;;;6.50;99.90;;;;;;4916643;29;20024;-78
2021/03/23 01:22:54;;;;;;;8.35;3.88;;;6.60;99.90;;;;;;4922831;29;20514;-76
2021/03/23 01:25:21;;;;;;;8.45;4.60;;;6.50;99.90;;;;;;4917966;29;20039;-78
2021/03/23 01:27:49;;;;;;;8.70;4.97;;;6.50;99.90;;;;;;4928938;29;20032;-77
2021/03/23 01:30:17;;;;;;;7.38;4.15;;;6.50;99.90;;;;;;4914283;29;20043;-77
2021/03/23 01:32:45;;;;;;;5.68;4.28;;;6.60;99.90;;;;;;4932166;29;20036;-78
2021/03/23 01:35:11;;;;;;;8.70;4.50;;;6.60;99.90;;;;;;4928250;29;20028;-78
2021/03/23 01:37:38;;;;;;;8.43;4.72;;;6.70;99.90;;;;;;4931279;29;20032;-76
2021/03/23 01:40:08;;;;;;;9.05;4.78;;;6.70;99.90;;;;;;4921625;29;20028;-80
2021/03/23 01:42:42;;;;;;;10.88;4.43;;;6.60;99.90;;;;;;4928082;29;20028;-76
2021/03/23 01:45:22;;;;;;;8.35;4.38;;;6.60;99.90;;;;;;4927094;29;20048;-77
2021/03/23 01:47:49;;;;;;;8.90;4.30;;;6.60;99.90;;;;;;4923404;29;20063;-77
2021/03/23 01:50:16;;;;;;;10.57;4.75;;;6.60;99.90;;;;;;4923209;29;20024;-76
2021/03/23 01:52:47;;;;;;;6.90;4.25;;;6.60;99.90;;;;;;4925180;29;20024;-77
2021/03/23 01:55:16;;;;;;;7.78;4.38;;;6.50;99.90;;;;;;4925684;29;20035;-77
2021/03/23 01:57:45;;;;;;;5.90;4.25;;;6.60;99.90;;;;;;4922678;29;20031;-76
2021/03/23 02:00:11;;;;;;;8.48;5.60;;;6.60;99.90;;;;;;4919754;29;20092;-76
2021/03/23 02:02:38;;;;;;;7.45;4.20;;;6.50;99.90;;;;;;4925157;29;20047;-75
2021/03/23 02:05:06;;;;;;;7.00;4.43;;;6.50;99.90;;;;;;4928136;29;20075;-76
2021/03/23 02:07:31;;;;;;;6.50;5.00;;;6.50;99.90;;;;;;4919461;29;20031;-76
2021/03/23 02:09:58;;;;;;;7.32;4.43;;;6.50;99.90;;;;;;4922095;29;20071;-75
2021/03/23 02:12:28;;;;;;;9.38;4.53;;;6.60;99.90;;;;;;4919766;29;20072;-76
2021/03/23 02:14:53;;;;;;;4.80;3.97;;;6.50;99.90;;;;;;4917586;29;20487;-76
2021/03/23 02:17:26;;;;;;;7.75;4.15;;;6.30;99.90;;;;;;4924395;29;20510;-76
2021/03/23 02:19:57;;;;;;;6.75;4.18;;;6.30;99.90;;;;;;4918784;29;20031;-77
2021/03/23 02:22:27;;;;;;;5.68;3.92;;;6.30;99.90;;;;;;4918482;29;20025;-77
2021/03/23 02:24:54;;;;;;;7.80;4.95;;;6.40;99.90;;;;;;4923128;29;20515;-76
2021/03/23 02:27:21;;;;;;;8.95;4.80;;;6.20;99.90;;;;;;4924696;29;20062;-76
2021/03/23 02:29:50;;;;;;;7.50;5.22;;;6.30;99.90;;;;;;4925092;29;20021;-76
2021/03/23 02:32:16;;;;;;;7.35;5.05;;;6.30;99.90;;;;;;4915429;29;20036;-76
2021/03/23 02:34:42;;;;;;;10.02;4.90;;;6.30;99.90;;;;;;4923060;29;20028;-78
2021/03/23 02:37:07;;;;;;;7.13;5.60;;;6.40;99.90;;;;;;4923329;29;20035;-76
2021/03/23 02:39:33;;;;;;;8.95;5.45;;;6.30;99.90;;;;;;4923401;29;20517;-77
2021/03/23 02:42:00;;;;;;;12.32;6.22;;;6.40;99.90;;;;;;4926064;29;20032;-79
2021/03/23 02:44:27;;;;;;;9.40;5.80;;;6.40;99.90;;;;;;4921868;29;20028;-77
2021/03/23 02:46:53;;;;;;;8.63;5.78;;;6.40;99.90;;;;;;4925006;29;20030;-79
2021/03/23 02:49:19;;;;;;;9.93;6.80;;;6.50;99.90;;;;;;4925388;29;20020;-77
2021/03/23 02:51:49;;;;;;;9.40;6.45;;;6.40;99.90;;;;;;4929738;29;20478;-76
2021/03/23 02:54:15;;;;;;;9.50;6.28;;;6.40;99.90;;;;;;4929795;29;20088;-77
2021/03/23 02:56:41;;;;;;;9.07;6.32;;;6.40;99.90;;;;;;4926420;29;20020;-77
2021/03/23 02:59:07;;;;;;;9.38;6.32;;;6.40;99.90;;;;;;4930048;29;20032;-76
2021/03/23 03:01:35;;;;;;;9.52;5.97;;;6.20;99.90;;;;;;4921678;29;20032;-77
2021/03/23 03:04:06;;;;;;;9.93;5.97;;;6.20;99.90;;;;;;4921371;29;20103;-76
2021/03/23 03:06:32;;;;;;;12.80;6.80;;;6.20;99.90;;;;;;4920211;29;20024;-76
2021/03/23 03:08:58;;;;;;;9.20;6.13;;;6.20;99.90;;;;;;4918264;29;20303;-77
2021/03/23 03:11:23;;;;;;;10.25;7.63;;;6.20;99.90;;;;;;4927860;29;20050;-76
2021/03/23 03:13:49;;;;;;;12.93;6.95;;;6.20;99.90;;;;;;4925679;29;20156;-76
2021/03/23 03:16:19;;;;;;;13.45;8.40;;;6.20;99.90;;;;;;4924285;29;20103;-76
2021/03/23 03:18:44;;;;;;;11.95;8.20;;;6.10;99.90;;;;;;4928441;29;20486;-76
2021/03/23 03:21:11;;;;;;;11.30;8.48;;;6.10;99.90;;;;;;4926293;29;20079;-77
2021/03/23 03:23:37;;;;;;;13.95;9.35;;;7.70;99.90;;;;;;4924752;29;20503;-76
2021/03/23 03:26:04;;;;;;;11.60;8.40;;;6.20;99.90;;;;;;4924954;29;20047;-77
2021/03/23 03:28:30;;;;;;;12.20;8.63;;;6.20;99.90;;;;;;4928654;29;20046;-79
2021/03/23 03:30:58;;;;;;;11.63;8.38;;;6.20;99.90;;;;;;4925666;29;20040;-76
2021/03/23 03:33:30;;;;;;;12.90;8.38;;;6.20;99.90;;;;;;4931856;29;20028;-76
2021/03/23 03:35:59;;;;;;;12.30;7.38;;;6.20;99.90;;;;;;4929835;29;20301;-77
2021/03/23 03:38:26;;;;;;;11.23;7.60;;;6.20;99.90;;;;;;4929598;29;20032;-79
2021/03/23 03:40:56;;;;;;;9.57;6.60;;;6.00;99.90;;;;;;4914848;29;20056;-78
2021/03/23 03:43:32;;;;;;;10.60;6.63;;;6.00;99.90;;;;;;4929335;29;20032;-76
2021/03/23 03:46:00;;;;;;;11.50;7.25;;;6.00;99.90;;;;;;4934050;29;20028;-78
2021/03/23 03:48:26;;;;;;;8.48;6.82;;;6.10;99.90;;;;;;4936889;29;20035;-75
2021/03/23 03:50:52;;;;;;;8.52;6.20;;;;;;;;;;4926453;29;20024;-76
2021/03/23 03:53:19;;;;;;;9.95;6.35;;;6.00;99.90;;;;;;4929388;29;20046;-77
2021/03/23 03:55:45;;;;;;;11.38;6.43;;;6.00;99.90;;;;;;4915856;29;20426;-76
2021/03/23 03:58:11;;;;;;;9.50;6.65;;;6.00;99.90;;;;;;4927315;29;20024;-76
2021/03/23 04:00:38;;;;;;;10.07;6.43;;;6.00;99.90;;;;;;4927987;29;20079;-76
2021/03/23 04:03:07;;;;;;;12.35;6.40;;;6.10;99.90;;;;;;4926944;29;20114;-77
2021/03/23 04:05:39;;;;;;;8.48;5.00;;;6.10;99.90;;;;;;4928908;29;20036;-76
2021/03/23 04:08:11;;;;;;;7.70;5.40;;;6.00;99.90;;;;;;4927895;29;20500;-76
2021/03/23 04:10:37;;;;;;;;;;;6.10;99.90;;;;;;4919698;29;20084;-76
2021/03/23 04:13:03;;;;;;;11.55;6.05;;;6.10;99.90;;;;;;4930159;29;19923;-75
2021/03/23 04:15:37;;;;;;;7.70;5.80;;;6.00;99.90;;;;;;4942851;29;20032;-77
2021/03/23 04:18:05;;;;;;;11.57;6.20;;;5.90;99.90;;;;;;4928420;29;20039;-76
2021/03/23 04:20:32;;;;;;;10.40;6.40;;;6.00;99.90;;;;;;4935056;29;20038;-76
2021/03/23 04:23:01;;;;;;;9.80;5.60;;;6.00;99.90;;;;;;4938024;29;20410;-77
2021/03/23 04:25:30;;;;;;;8.57;5.10;;;6.00;99.90;;;;;;4937828;29;20024;-76
2021/03/23 04:27:56;;;;;;;5.22;4.32;;;6.00;99.90;;;;;;4929880;29;20068;-76
2021/03/23 04:30:23;;;;;;;7.47;5.10;;;6.00;99.90;;;;;;4934668;29;20100;-77
2021/03/23 04:32:54;;;;;;;8.77;3.92;;;6.00;99.90;;;;;;4930454;29;20051;-79
2021/03/23 04:35:26;;;;;;;;;;;5.90;99.90;;;;;;4921534;29;20020;-79
2021/03/23 04:37:52;;;;;;;5.70;3.65;;;5.90;99.90;;;;;;4930591;29;19962;-78
2021/03/23 04:40:18;;;;;;;6.05;4.15;;;5.80;99.90;;;;;;4920292;29;20032;-77
2021/03/23 04:42:46;;;;;;;5.00;3.50;;;5.90;99.90;;;;;;4935699;29;20615;-78
2021/03/23 04:45:12;;;;;;;5.15;3.65;;;5.80;99.90;;;;;;4936458;29;20020;-77
2021/03/23 04:47:38;;;;;;;6.03;2.95;;;;;;;;;;4915469;29;20032;-77
2021/03/23 04:50:05;;;;;;;6.45;3.10;;;5.80;99.90;;;;;;4913866;29;20028;-76
2021/03/23 04:52:33;;;;;;;5.43;3.28;;;5.80;99.90;;;;;;4923417;29;20069;-76
2021/03/23 04:54:59;;;;;;;3.85;2.60;;;5.80;99.90;;;;;;4934024;29;20024;-77
2021/03/23 04:57:25;;;;;;;5.50;2.92;;;5.80;99.90;;;;;;4931528;29;20566;-75
2021/03/23 04:59:50;;;;;;;4.50;2.85;;;5.80;99.90;;;;;;4920693;29;20027;-77
2021/03/23 05:02:16;;;;;;;3.63;2.80;;;5.70;99.90;;;;;;4926325;29;20522;-77
2021/03/23 05:04:45;;;;;;;4.35;2.40;;;5.70;99.90;;;;;;4925481;29;20039;-77
2021/03/23 05:07:10;;;;;;;3.97;2.65;;;5.70;99.90;;;;;;4932097;29;20079;-77
2021/03/23 05:09:38;;;;;;;5.78;2.67;;;5.70;99.90;;;;;;4931199;29;20052;-76
2021/03/23 05:12:13;;;;;;;11.63;7.28;;;5.80;99.90;;;;;;4929837;29;20036;-76
2021/03/23 05:14:39;;;;;;;4.57;3.50;;;5.70;99.90;;;;;;4927205;29;20032;-76
2021/03/23 05:17:05;;;;;;;5.43;3.08;;;5.80;99.90;;;;;;4927774;29;20122;-78
2021/03/23 05:19:31;;;;;;;5.18;2.83;;;5.80;99.90;;;;;;4915234;29;20147;-78
2021/03/23 05:21:56;;;;;;;5.03;2.67;;;5.90;99.90;;;;;;4925424;29;20054;-77
2021/03/23 05:24:22;;;;;;;3.90;2.65;;;5.90;99.90;;;;;;4929025;29;20037;-77
2021/03/23 05:26:48;;;;;;;3.25;2.13;;;6.00;99.90;;;;;;4922899;29;20035;-77
2021/03/23 05:29:13;;;;;;;4.00;2.50;;;5.90;99.90;;;;;;4928632;29;20039;-77
2021/03/23 05:31:39;;;;;;;7.43;3.60;;;6.00;99.90;;;;;;4926504;29;20115;-78
2021/03/23 05:34:04;;;;;;;4.22;2.70;;;6.00;99.90;;;;;;4921625;29;20071;-76
2021/03/23 05:36:30;;;;;;;5.05;3.10;;;6.00;99.90;;;;;;4923955;29;20059;-78
2021/03/23 05:38:55;;;;;;;4.22;3.28;;;6.00;99.90;;;;;;4917729;29;20467;-77
2021/03/23 05:41:36;;;;;;;4.50;3.25;;;6.00;99.90;;;;;;4918159;29;20032;-78
2021/03/23 05:44:20;;;;;;;4.22;3.40;;;6.10;99.90;;;;;;4923042;29;20090;-78
2021/03/23 05:46:46;;;;;;;5.97;3.63;;;6.20;99.90;;;;;;4918021;29;20028;-79
2021/03/23 05:49:11;;;;;;;6.05;4.32;;;6.10;99.90;;;;;;4934685;29;20078;-80
2021/03/23 05:51:57;;;;;;;7.70;4.97;;;6.10;99.90;;;;;;4931465;29;20031;-78
2021/03/23 05:54:35;;;;;;;7.45;5.25;;;6.20;99.90;;;;;;4927412;29;20071;-78
2021/03/23 05:57:26;;;;;;;7.35;4.50;;;6.20;99.90;;;;;;4918429;29;20052;-79
2021/03/23 06:00:06;;;;;;;8.75;5.15;;;6.30;99.90;;;;;;4937948;29;20036;-81
2021/03/23 06:03:21;;;;;;;7.93;4.45;;;6.30;99.90;;;;;;4935931;29;20013;-80
2021/03/23 06:06:26;;;;;;;7.25;5.10;;;6.30;99.90;;;;;;5021338;23;20079;-77
2021/03/23 06:08:55;;;;;;;9.70;5.47;;;6.30;99.90;;;;;;4919618;29;20036;-76
2021/03/23 06:11:38;;;;;;;6.95;4.88;;;6.30;99.90;;;;;;4913736;29;20383;-82
2021/03/23 06:14:32;;;;;;;12.48;6.75;;;6.30;99.90;;;;;;4916515;29;20036;-76
2021/03/23 06:17:14;;;;;;;7.97;5.88;;;6.20;99.90;;;;;;4923898;29;20365;-77
2021/03/23 06:20:18;;;;;;;7.70;5.97;;;6.20;99.90;;;;;;4923741;29;20384;-79
2021/03/23 06:23:04;;;;;;;10.73;6.18;;;6.30;99.90;;;;;;4919946;29;20056;-78
2021/03/23 06:25:46;;;;;;;7.88;5.53;;;6.20;99.90;;;;;;4918994;29;20032;-79
2021/03/23 06:28:18;;;;;;;9.27;6.43;;;6.10;99.90;;;;;;4919488;29;20474;-77
2021/03/23 06:30:57;;;;;;;7.85;5.78;;;6.30;99.90;;;;;;4917804;29;20064;-76
2021/03/23 06:33:26;;;;;;;7.45;5.78;;;6.30;99.90;;;;;;4908367;29;20036;-76
2021/03/23 06:36:04;;;;;;;11.13;6.38;;;6.20;99.90;;;;;;4914274;29;20376;-77
2021/03/23 06:38:31;;;;;;;8.57;6.03;;;6.30;99.90;;;;;;4921348;29;20043;-79
2021/03/23 06:41:23;;;;;;;8.45;6.28;;;6.40;99.90;;;;;;4926711;29;20036;-80
2021/03/23 06:43:54;;;;;;;;;;;6.30;99.90;;;;;;4930130;29;20116;-78
2021/03/23 06:46:34;;;;;;;17.90;6.22;;;6.40;99.90;;;;;;4924793;29;19911;-80
2021/03/23 06:49:08;;;;;;;8.00;6.15;;;6.50;99.90;;;;;;4912754;29;20035;-78
2021/03/23 06:52:00;;;;;;;11.27;6.68;;;6.50;99.90;;;;;;4923197;29;20048;-80
2021/03/23 06:54:40;;;;;;;10.02;6.22;;;6.50;99.90;;;;;;4905575;29;20497;-76
2021/03/23 06:57:14;;;;;;;10.48;6.60;;;6.60;99.90;;;;;;4910068;29;20061;-79
2021/03/23 07:00:14;;;;;;;8.90;5.43;;;6.60;99.90;;;;;;4917607;29;20030;-74
2021/03/23 07:02:43;;;;;;;9.50;5.43;;;6.50;99.90;;;;;;4925342;29;20028;-77
2021/03/23 07:05:31;;;;;;;8.48;5.70;;;6.50;99.90;;;;;;4930891;29;20016;-78
2021/03/23 07:08:09;;;;;;;12.50;6.13;;;6.50;99.90;;;;;;4926350;29;20171;-77
2021/03/23 07:10:44;;;;;;;10.82;5.90;;;6.50;99.90;;;;;;4914612;29;20087;-77
2021/03/23 07:13:31;;;;;;;8.40;5.10;;;6.40;99.90;;;;;;4922574;29;20195;-76
2021/03/23 07:16:11;;;;;;;7.70;5.20;;;6.50;99.90;;;;;;4924317;29;20028;-77
2021/03/23 07:18:50;;;;;;;8.98;5.63;;;6.60;99.90;;;;;;4919925;29;20036;-80
2021/03/23 07:21:22;;;;;;;10.10;6.10;;;6.50;99.90;;;;;;4923189;29;20016;-78
2021/03/23 07:24:05;;;;;;;11.75;8.02;;;6.50;99.90;;;;;;4922794;29;20440;-80
2021/03/23 07:26:35;;;;;;;7.82;5.38;;;6.60;99.90;;;;;;4909031;29;20028;-79
2021/03/23 07:29:10;;;;;;;8.85;6.80;;;6.60;99.90;;;;;;4920105;29;20056;-78
2021/03/23 07:31:41;;;;;;;9.40;5.88;;;6.70;99.90;;;;;;4912122;29;20519;-80
2021/03/23 07:34:18;;;;;;;8.63;5.93;;;6.60;99.90;;;;;;4921027;29;20095;-78
2021/03/23 07:37:03;;;;;;;8.05;6.05;;;6.60;99.90;;;;;;4921910;29;20048;-78
2021/03/23 07:39:39;;;;;;;9.13;6.50;;;6.60;99.90;;;;;;4909506;29;20044;-78
2021/03/23 07:42:07;;;;;;;11.75;6.80;;;6.60;99.90;;;;;;4922296;29;20040;-77
2021/03/23 07:44:41;;;;;;;9.90;6.53;;;6.50;99.90;;;;;;4922531;29;20533;-81
2021/03/23 07:47:49;;;;;;;10.50;7.35;;;6.60;99.90;;;;;;4923091;29;20032;-76
2021/03/23 07:50:26;;;;;;;10.73;7.57;;;6.70;99.90;;;;;;4920497;29;20025;-78
2021/03/23 07:53:17;;;;;;;9.88;6.80;;;6.70;99.90;;;;;;4922184;29;20055;-78
2021/03/23 07:55:43;;;;;;;10.52;6.90;;;6.70;99.90;;;;;;4920706;29;20067;-77
2021/03/23 07:58:47;;;;;;;8.57;6.00;;;6.70;99.90;;;;;;4919387;29;20418;-78
2021/03/23 08:01:18;;;;;;;10.55;6.97;;;6.80;99.90;;;;;;4918506;29;20162;-78
2021/03/23 08:04:02;;;;;;;9.38;6.53;;;6.70;99.90;;;;;;4920300;29;20056;-79
2021/03/23 08:06:54;;;;;;;12.07;7.00;;;6.90;99.90;;;;;;4932949;29;20082;-81
2021/03/23 08:09:44;;;;;;;9.98;6.90;;;7.10;99.90;;;;;;4935927;29;20032;-82
2021/03/23 08:12:29;;;;;;;11.88;6.97;;;;;;;;;;4941594;29;20369;-81
2021/03/23 08:15:34;;;;;;;13.27;8.45;;;7.10;99.90;;;;;;4955592;29;20081;-82
2021/03/23 08:18:37;;;;;;;10.55;8.02;;;7.20;99.90;;;;;;4898184;29;20040;-84
2021/03/23 08:21:42;;;;;;;9.10;7.20;;;7.00;99.90;;;;;;4945389;29;20024;-82
2021/03/23 08:24:30;;;;;;;9.10;6.68;;;7.00;99.90;;;;;;4944633;29;20064;-81
2021/03/23 08:27:25;;;;;;;66.10;40.53;;;7.00;99.90;;;;;;4930283;29;20027;-79
2021/03/23 08:30:09;;;;;;;109.60;63.85;;;6.90;99.90;;;;;;4930403;29;20540;-81
2021/03/23 08:32:58;;;;;;;80.65;52.00;;;6.80;99.90;;;;;;4928191;29;20088;-78
2021/03/23 08:35:57;;;;;;;14.80;9.57;;;6.80;99.90;;;;;;4923871;29;20084;-79
2021/03/23 08:38:40;;;;;;;9.48;6.85;;;6.90;99.90;;;;;;4931761;29;20114;-79
2021/03/23 08:41:40;;;;;;;11.80;9.82;;;6.80;99.90;;;;;;4925906;29;20088;-78
2021/03/23 08:44:17;;;;;;;7.53;5.65;;;6.80;99.90;;;;;;4909643;29;20036;-77
2021/03/23 08:46:43;;;;;;;8.63;6.15;;;6.90;99.90;;;;;;4925957;29;20032;-79
2021/03/23 08:49:17;;;;;;;9.38;6.43;;;6.90;99.90;;;;;;4929457;29;20031;-76
2021/03/23 08:51:47;;;;;;;9.30;6.38;;;7.00;99.90;;;;;;4914710;29;20087;-77
2021/03/23 08:54:44;;;;;;;11.98;6.80;;;6.90;99.90;;;;;;4924844;29;20087;-77
2021/03/23 08:57:10;;;;;;;9.93;6.90;;;6.90;99.90;;;;;;4933019;29;20028;-77
2021/03/23 08:59:36;;;;;;;12.23;6.93;;;6.90;99.90;;;;;;4931420;29;20024;-78
2021/03/23 09:02:36;;;;;;;9.75;5.80;;;7.10;99.90;;;;;;4914204;29;20030;-80
2021/03/23 09:05:05;;;;;;;7.50;5.10;;;7.10;99.90;;;;;;4915102;29;20071;-78
2021/03/23 09:07:34;;;;;;;7.47;5.32;;;7.40;99.90;;;;;;4926539;29;20080;-79
2021/03/23 09:10:22;;;;;;;6.70;4.78;;;7.20;99.90;;;;;;4929184;29;20042;-78
2021/03/23 09:12:48;;;;;;;11.90;6.45;;;7.20;99.90;;;;;;4919935;29;20064;-80
2021/03/23 09:15:27;;;;;;;8.85;5.47;;;9.20;99.90;;;;;;4915741;29;20020;-78
2021/03/23 09:18:06;;;;;;;8.32;5.28;;;7.20;99.90;;;;;;4919058;29;20031;-78
2021/03/23 09:20:35;;;;;;;9.20;5.90;;;7.00;99.90;;;;;;4909687;29;20039;-79
2021/03/23 09:23:23;;;;;;;8.43;5.63;;;7.10;99.90;;;;;;4920124;29;20505;-78
2021/03/23 09:25:59;;;;;;;8.43;5.95;;;7.10;99.90;;;;;;4927767;29;20047;-78
2021/03/23 09:28:31;;;;;;;6.30;4.72;;;7.10;99.90;;;;;;4920998;29;20544;-79
2021/03/23 09:31:08;;;;;;;6.18;4.57;;;7.20;99.90;;;;;;4916797;29;20020;-78
2021/03/23 09:33:38;;;;;;;8.20;5.03;;;7.20;99.90;;;;;;4914793;29;20071;-77
2021/03/23 09:36:19;;;;;;;6.22;4.47;;;7.30;99.90;;;;;;4923570;29;20040;-80
2021/03/23 09:38:47;;;;;;;10.30;5.53;;;7.40;99.90;;;;;;4917046;29;20028;-77
2021/03/23 09:41:21;;;;;;;10.63;6.50;;;7.50;99.90;;;;;;4922358;29;20020;-79
2021/03/23 09:43:48;;;;;;;10.55;7.25;;;7.70;99.90;;;;;;4928129;29;20406;-78
2021/03/23 09:46:34;;;;;;;11.70;6.90;;;7.60;99.90;;;;;;4925687;29;20431;-79
2021/03/23 09:49:28;;;;;;;9.88;7.30;;;7.60;99.90;;;;;;4926707;29;20462;-80
2021/03/23 09:52:12;;;;;;;13.40;7.82;;;7.60;99.90;;;;;;4906677;29;20032;-79
2021/03/23 09:54:55;;;;;;;7.18;5.00;;;7.80;99.90;;;;;;4922502;29;20072;-78
2021/03/23 09:57:23;;;;;;;9.52;5.50;;;7.90;99.90;;;;;;4920528;29;20063;-80
2021/03/23 09:59:56;;;;;;;8.32;4.95;;;7.80;99.90;;;;;;4925725;29;20050;-74
2021/03/23 10:02:28;;;;;;;10.23;5.97;;;7.70;99.90;;;;;;4915720;29;20741;-76
2021/03/23 10:05:13;;;;;;;9.93;5.55;;;7.80;99.90;;;;;;4924181;29;20056;-79
2021/03/23 10:07:45;;;;;;;10.40;5.45;;;7.80;99.90;;;;;;4921691;29;20040;-79
2021/03/23 10:10:24;;;;;;;6.00;4.60;;;7.80;99.90;;;;;;4918019;29;21188;-81
2021/03/23 10:12:49;;;;;;;12.90;5.70;;;8.00;99.90;;;;;;4910276;29;20040;-78
2021/03/23 10:15:32;;;;;;;4.90;3.92;;;8.00;99.90;;;;;;4920655;29;20046;-79
2021/03/23 10:18:16;;;;;;;5.53;3.75;;;8.00;99.90;;;;;;4927624;29;20036;-80
2021/03/23 10:20:43;;;;;;;5.40;3.90;;;8.10;99.90;;;;;;4926161;29;20038;-81
2021/03/23 10:23:08;;;;;;;5.93;4.18;;;8.00;99.90;;;;;;4926166;29;20028;-75
2021/03/23 10:25:34;;;;;;;5.35;4.00;;;8.30;99.90;;;;;;4923017;29;20100;-76
2021/03/23 10:28:02;;;;;;;6.43;3.97;;;8.20;99.90;;;;;;4925440;29;20493;-78
2021/03/23 10:30:27;;;;;;;7.65;4.55;;;8.10;99.90;;;;;;4907652;29;20439;-77
2021/03/23 10:32:56;;;;;;;7.93;4.90;;;8.10;99.90;;;;;;4920900;29;20079;-78
2021/03/23 10:35:33;;;;;;;10.65;5.03;;;8.40;99.90;;;;;;4896839;29;20074;-77
2021/03/23 10:38:19;;;;;;;7.05;4.65;;;8.40;99.90;;;;;;4917342;29;20032;-80
2021/03/23 10:40:47;;;;;;;7.53;4.40;;;8.60;99.90;;;;;;4923292;29;20039;-79
2021/03/23 10:43:15;;;;;;;6.10;4.13;;;8.80;99.90;;;;;;4926312;29;20032;-83
2021/03/23 10:45:45;;;;;;;8.05;3.97;;;8.40;99.90;;;;;;4925509;29;20024;-79
2021/03/23 10:48:14;;;;;;;7.85;3.47;;;8.70;99.90;;;;;;4923117;29;20072;-81
2021/03/23 10:50:42;;;;;;;6.13;4.28;;;8.70;99.90;;;;;;4916771;29;20035;-78
2021/03/23 10:53:28;;;;;;;9.27;4.63;;;8.80;99.90;;;;;;4914725;29;20062;-79
2021/03/23 10:55:53;;;;;;;5.72;4.53;;;9.10;99.90;;;;;;4922247;29;20169;-82
2021/03/23 10:58:22;;;;;;;5.70;4.07;;;9.20;99.90;;;;;;4923836;29;20522;-82
2021/03/23 11:01:16;;;;;;;10.13;7.00;;;9.20;99.90;;;;;;4923078;29;20043;-79
2021/03/23 11:03:44;;;;;;;7.72;3.58;;;8.70;99.90;;;;;;4926800;29;20530;-78
2021/03/23 11:10:07;;;;;;;7.05;3.92;;;9.40;99.90;;;;;;4910488;29;20526;-82
2021/03/23 11:16:03;;;;;;;6.75;3.85;;;;;;;;;;4847746;29;20132;-78
2021/03/23 11:22:38;;;;;;;6.28;2.92;;;9.50;99.90;;;;;;4839165;29;20786;-82
2021/03/23 11:25:16;;;;;;;6.90;2.85;;;9.50;99.90;;;;;;4907008;29;20064;-79
2021/03/23 11:27:45;;;;;;;6.03;2.92;;;;;;;;;;4910789;29;20047;-76
2021/03/23 11:30:11;;;;;;;7.30;3.30;;;;;;;;;;4896144;29;20127;-78
2021/03/23 11:32:39;;;;;;;9.15;7.25;;;;;;;;;;4913258;29;20791;-81
2021/03/23 11:35:08;;;;;;;5.47;3.10;;;9.70;99.80;;;;;;4914079;29;20139;-79
2021/03/23 11:37:34;;;;;;;5.15;2.42;;;;;;;;;;4912996;29;20905;-82
2021/03/23 11:40:02;;;;;;;4.00;2.70;;;;;;;;;;4916390;29;20040;-76
2021/03/23 11:42:35;;;;;;;8.13;2.92;;;9.20;99.90;;;;;;4920160;29;20442;-78
2021/03/23 11:45:17;;;;;;;3.88;2.78;;;9.30;99.90;;;;;;4913159;29;20076;-78
2021/03/23 11:47:45;;;;;;;;;;;9.30;99.90;;;;;;4898255;29;20044;-76
2021/03/23 11:50:35;;;;;;;4.97;2.80;;;9.30;99.90;;;;;;4915357;29;20360;-78
2021/03/23 11:53:30;;;;;;;;;;;;;;;;;;;;;
2021/03/23 11:56:11;;;;;;;4.80;2.00;;;;;;;;;;4921608;29;20121;-84
2021/03/23 11:59:28;;;;;;;4.57;2.33;;;9.10;99.90;;;;;;4911013;29;20039;-84
2021/03/23 12:05:19;;;;;;;6.05;2.75;;;9.60;99.70;;;;;;4915337;29;20036;-84
2021/03/23 12:07:54;;;;;;;3.88;2.55;;;;;;;;;;4906426;29;20076;-79
2021/03/23 12:10:32;;;;;;;3.78;2.35;;;9.30;99.80;;;;;;4913597;29;20056;-78
2021/03/23 12:13:26;;;;;;;6.65;2.85;;;9.40;99.90;;;;;;4905039;29;20044;-82
2021/03/23 12:16:29;;;;;;;3.45;1.67;;;9.60;95.40;;;;;;4887432;29;20063;-83
2021/03/23 12:19:39;;;;;;;3.88;2.20;;;9.50;95.80;;;;;;4898954;29;20029;-87
2021/03/23 12:22:30;;;;;;;7.50;2.08;;;9.40;97.40;;;;;;4886929;29;20036;-85
2021/03/23 12:25:04;;;;;;;3.43;2.30;;;;;;;;;;4918400;29;20040;-85
2021/03/23 12:27:53;;;;;;;3.70;2.45;;;9.30;99.10;;;;;;4901364;29;20456;-80
2021/03/23 12:30:52;;;;;;;6.57;2.88;;;9.30;99.50;;;;;;4917093;29;20021;-86
2021/03/23 12:33:55;;;;;;;4.63;2.20;;;9.10;99.90;;;;;;4857581;29;20054;-88
2021/03/23 12:37:11;;;;;;;4.75;2.55;;;9.00;99.90;;;;;;4818357;29;20022;-85
2021/03/23 12:42:38;;;;;;;3.65;3.15;;;8.50;99.90;;;;;;4856247;29;20046;-84
2021/03/23 12:45:42;;;;;;;8.90;3.10;;;8.50;99.90;;;;;;4869291;29;20045;-81
2021/03/23 12:48:19;;;;;;;5.60;3.08;;;;;;;;;;4856068;29;20050;-88
2021/03/23 12:51:02;;;;;;;3.85;3.00;;;8.70;99.90;;;;;;4844194;29;20516;-84
2021/03/23 12:54:14;;;;;;;;;;;;;;;;;;;;;
2021/03/23 13:01:23;;;;;;;;;;;;;;;;;;;;;
2021/03/23 13:07:10;;;;;;;;;;;;;;;;;;;;;
2021/03/23 13:09:51;;;;;;;6.70;3.88;;;;;;;;;;4772934;29;20119;-85
2021/03/23 13:16:35;;;;;;;6.80;4.80;;;9.80;99.90;;;;;;4902111;29;20111;-81
2021/03/23 13:19:02;;;;;;;4.93;3.30;;;;;;;;;;4866306;29;20099;-85
2021/03/23 13:25:50;;;;;;;4.07;3.15;;;9.30;99.90;;;;;;4931082;29;20943;-81
2021/03/23 13:32:12;;;;;;;6.03;3.13;;;8.90;99.90;;;;;;4847403;29;20042;-85
2021/03/23 13:38:23;;;;;;;6.50;3.60;;;8.80;99.90;;;;;;4901967;29;20036;-83
2021/03/23 13:47:58;;;;;;;5.43;4.18;;;;;;;;;;4878364;29;20047;-84
2021/03/23 13:50:36;;;;;;;9.73;4.78;;;;;;;;;;4882520;29;20070;-82
2021/03/23 13:54:12;;;;;;;6.75;3.55;;;8.90;99.90;;;;;;4879915;29;20237;-82
2021/03/23 13:56:39;;;;;;;7.15;4.38;;;;;;;;;;4827267;29;20057;-81
2021/03/23 13:59:35;;;;;;;7.68;4.43;;;8.70;99.90;;;;;;4829477;29;20098;-81
2021/03/23 14:02:21;;;;;;;7.78;4.13;;;8.70;99.90;;;;;;4883867;29;20085;-81
2021/03/23 14:05:18;;;;;;;8.38;4.00;;;8.70;99.90;;;;;;4883469;29;20139;-82
2021/03/23 14:08:31;;;;;;;7.55;4.45;;;8.70;99.90;;;;;;4867556;29;20041;-81
2021/03/23 14:11:03;;;;;;;9.15;4.30;;;;;;;;;;4881803;29;20059;-82
2021/03/23 14:14:39;;;;;;;;;;;;;;;;;;;;;
2021/03/23 14:18:14;;;;;;;8.48;4.20;;;8.30;99.90;;;;;;4882142;29;20063;-85
2021/03/23 14:21:14;;;;;;;12.82;4.55;;;8.40;99.90;;;;;;4898927;29;20028;-87
2021/03/23 14:24:37;;;;;;;8.27;3.58;;;8.40;99.90;;;;;;4936229;29;20029;-89
2021/03/23 14:30:47;;;;;;;;;;;;;;;;;;;;;
2021/03/23 14:33:32;;;;;;;7.13;3.83;;;;;;;;;;4916313;29;20146;-85
2021/03/23 14:46:59;;;;;;;5.57;3.70;;;8.80;99.90;;;;;;4772315;30;20062;-88
2021/03/23 14:49:55;;;;;;;8.48;4.72;;;8.60;99.90;;;;;;4795634;29;20030;-84
2021/03/23 14:52:45;;;;;;;8.55;4.75;;;8.60;99.90;;;;;;4926533;29;20056;-83
2021/03/23 14:55:30;;;;;;;9.90;5.00;;;8.60;99.90;;;;;;4926914;29;20071;-81
2021/03/23 14:57:56;;;;;;;9.75;4.55;;;;;;;;;;4928143;29;20578;-81